Time;durP1;ratioP1;P1;durP2;ratioP2;P2;SDS_P1;SDS_P2;PMS_P1;PMS_P2;Temp;Humidity;BMP_temperature;BMP_pressure;BME280_temperature;BME280_humidity;BME280_pressure;Samples;Min_cycle;Max_cycle;Signal;HPM_P1;HPM_P2
2023/07/12 00:00:53;;;;;;;;;5.50;4.50;;;;;25.85;51.33;100729.47;4960033;28;46185;-66
2023/07/12 00:03:20;;;;;;;;;6.50;5.50;;;;;25.87;51.17;100730.28;4960012;28;45491;-66
2023/07/12 00:05:46;;;;;;;;;4.75;4.50;;;;;25.79;51.03;100745.00;4960096;28;45462;-67
2023/07/12 00:08:22;;;;;;;;;4.00;4.00;;;;;25.91;50.77;100742.50;4961319;28;45585;-66
2023/07/12 00:10:50;;;;;;;;;6.25;6.25;;;;;25.97;50.61;100729.59;4974863;28;45526;-65
2023/07/12 00:13:16;;;;;;;;;6.00;5.50;;;;;25.91;50.79;100742.50;4959674;28;45341;-66
2023/07/12 00:15:43;;;;;;;;;7.50;4.75;;;;;25.80;50.96;100730.59;4960060;28;45172;-66
2023/07/12 00:18:14;;;;;;;;;4.25;4.00;;;;;25.91;50.67;100748.78;4959950;28;45539;-66
2023/07/12 00:20:39;;;;;;;;;3.25;3.25;;;;;25.91;50.65;100751.44;4959549;28;45473;-66
2023/07/12 00:23:05;;;;;;;;;5.25;3.25;;;;;26.00;50.54;100747.31;4960163;28;45694;-65
2023/07/12 00:25:32;;;;;;;;;4.00;4.00;;;;;26.14;50.07;100746.47;4960439;28;45249;-65
2023/07/12 00:27:59;;;;;;;;;3.50;3.50;;;;;26.22;49.93;100742.34;4960013;28;45417;-65
2023/07/12 00:30:31;;;;;;;;;4.75;4.00;;;;;26.07;50.18;100754.03;4958288;28;46651;-64
2023/07/12 00:33:02;;;;;;;;;3.75;3.25;;;;;26.11;50.39;100757.41;4959343;28;45413;-66
2023/07/12 00:35:29;;;;;;;;;5.75;3.25;;;;;26.19;50.09;100753.25;4959774;28;45298;-66
2023/07/12 00:37:57;;;;;;;;;4.25;4.25;;;;;25.86;50.59;100753.53;4959350;28;45325;-67
2023/07/12 00:40:31;;;;;;;;;4.75;3.00;;;;;25.73;51.04;100761.44;4959199;28;46303;-66
2023/07/12 00:43:05;;;;;;;;;7.25;3.00;;;;;25.70;51.00;100764.31;4959055;28;45464;-66
2023/07/12 00:45:32;;;;;;;;;3.50;2.25;;;;;25.78;51.23;100762.03;4959139;28;45289;-67
2023/07/12 00:47:58;;;;;;;;;5.25;3.00;;;;;25.71;51.16;100741.03;4958956;28;45770;-68
2023/07/12 00:50:24;;;;;;;;;4.00;3.25;;;;;25.79;50.83;100758.41;4959517;28;45366;-66
2023/07/12 00:52:50;;;;;;;;;3.00;3.00;;;;;25.78;51.08;100753.97;4959327;28;45439;-66
2023/07/12 00:56:10;;;;;;;;;4.50;3.25;;;;;25.75;50.95;100764.06;4960422;28;45501;-66
2023/07/12 00:58:42;;;;;;;;;6.50;4.00;;;;;25.58;51.36;100741.78;4900567;29;45458;-66
2023/07/12 01:01:09;;;;;;;;;4.00;1.50;;;;;25.53;51.83;100760.00;4929045;28;45448;-68
2023/07/12 01:03:38;;;;;;;;;4.50;4.00;;;;;25.57;51.60;100749.91;4939784;28;45381;-66
2023/07/12 01:06:08;;;;;;;;;3.00;3.00;;;;;25.57;51.82;100755.28;4939956;28;45488;-65
2023/07/12 01:08:34;;;;;;;;;2.00;2.00;;;;;25.55;51.71;100755.38;4939962;28;45496;-65
2023/07/12 01:11:02;;;;;;;;;5.00;4.00;;;;;25.57;51.56;100740.06;4939744;28;46373;-66
2023/07/12 01:13:31;;;;;;;;;2.00;2.00;;;;;25.76;51.05;100757.72;4939793;28;45423;-66
2023/07/12 01:15:58;;;;;;;;;4.00;4.00;;;;;25.86;51.08;100755.31;4939834;28;45400;-66
2023/07/12 01:18:24;;;;;;;;;3.25;3.25;;;;;25.95;50.32;100765.53;4940589;28;45530;-65
2023/07/12 01:21:08;;;;;;;;;2.75;2.75;;;;;26.02;49.74;100766.88;4940940;28;46197;-65
2023/07/12 01:23:34;;;;;;;;;2.50;2.00;;;;;25.98;49.82;100760.84;4939439;28;45644;-65
2023/07/12 01:26:21;;;;;;;;;2.00;2.00;;;;;26.08;50.02;100761.13;4939641;28;45519;-65
2023/07/12 01:28:51;;;;;;;;;4.00;4.00;;;;;26.01;49.59;100752.59;4939582;28;45384;-66
2023/07/12 01:31:17;;;;;;;;;2.25;2.00;;;;;26.12;49.75;100768.00;4939298;28;45372;-66
2023/07/12 01:33:43;;;;;;;;;3.50;3.25;;;;;26.11;49.37;100771.66;4937956;28;45355;-66
2023/07/12 01:36:08;;;;;;;;;2.00;2.00;;;;;26.14;49.51;100774.16;4939621;28;46419;-66
2023/07/12 01:38:34;;;;;;;;;2.00;2.00;;;;;26.15;49.20;100775.91;4939548;28;45461;-65
2023/07/12 01:41:00;;;;;;;;;8.75;8.00;;;;;26.18;49.24;100772.16;4939336;28;46129;-65
2023/07/12 01:43:25;;;;;;;;;8.00;7.00;;;;;26.15;48.89;100759.78;4939137;28;45277;-65
2023/07/12 01:45:51;;;;;;;;;4.00;4.00;;;;;26.17;48.40;100776.66;4939373;28;45362;-65
2023/07/12 01:48:17;;;;;;;;;6.00;3.00;;;;;26.18;48.47;100778.38;4939053;28;45340;-65
2023/07/12 01:50:42;;;;;;;;;2.50;2.25;;;;;26.17;48.30;100779.34;4939030;28;46100;-65
2023/07/12 01:53:09;;;;;;;;;3.25;2.00;;;;;26.17;47.97;100781.16;4939488;28;45534;-65
2023/07/12 01:55:35;;;;;;;;;1.75;1.75;;;;;26.11;48.25;100776.19;4939441;28;45333;-65
2023/07/12 01:58:00;;;;;;;;;3.00;1.25;;;;;26.14;47.72;100776.84;4954928;28;46705;-65
2023/07/12 02:00:26;;;;;;;;;3.00;2.00;;;;;26.08;47.36;100771.88;4956583;28;45390;-65
2023/07/12 02:02:51;;;;;;;;;1.00;1.00;;;;;26.17;47.17;100786.50;4958477;28;45401;-65
2023/07/12 02:05:18;;;;;;;;;2.25;2.25;;;;;26.16;47.11;100787.50;4958508;28;45536;-65
2023/07/12 02:07:44;;;;;;;;;0.75;0.75;;;;;26.12;47.21;100791.31;4959192;28;45271;-65
2023/07/12 02:10:14;;;;;;;;;1.50;1.00;;;;;26.13;47.24;100787.69;4958991;28;45685;-66
2023/07/12 02:12:41;;;;;;;;;1.50;1.00;;;;;26.14;47.20;100792.94;4958271;28;45353;-65
2023/07/12 02:15:07;;;;;;;;;1.75;1.75;;;;;26.08;46.89;100792.47;4958628;28;45556;-65
2023/07/12 02:17:33;;;;;;;;;0.50;0.50;;;;;26.08;47.25;100790.66;4958346;28;45257;-66
2023/07/12 02:19:59;;;;;;;;;1.25;1.25;;;;;26.08;47.05;100795.13;4956790;28;45465;-65
2023/07/12 02:22:24;;;;;;;;;0.50;0.50;;;;;26.10;47.19;100799.47;4958064;28;45523;-66
2023/07/12 02:24:50;;;;;;;;;0.00;0.00;;;;;26.10;46.54;100806.66;4958198;28;45460;-65
2023/07/12 02:27:15;;;;;;;;;1.00;0.00;;;;;26.07;46.39;100807.69;4958371;28;45377;-65
2023/07/12 02:29:41;;;;;;;;;0.75;0.00;;;;;26.05;46.28;100811.44;4958161;28;46249;-65
2023/07/12 02:32:09;;;;;;;;;0.00;0.00;;;;;26.00;46.24;100811.72;4958398;28;45347;-65
2023/07/12 02:34:35;;;;;;;;;0.50;0.50;;;;;26.02;46.44;100817.88;4958258;28;45705;-65
2023/07/12 02:37:00;;;;;;;;;0.00;0.00;;;;;25.97;46.06;100819.97;4958407;28;45321;-65
2023/07/12 02:39:26;;;;;;;;;0.00;0.00;;;;;25.93;46.20;100813.91;4957701;28;46631;-65
2023/07/12 02:41:51;;;;;;;;;1.00;0.00;;;;;25.82;46.38;100805.63;4957951;28;45799;-65
2023/07/12 02:44:17;;;;;;;;;1.00;0.00;;;;;25.78;46.36;100804.94;4957651;28;45362;-65
2023/07/12 02:46:42;;;;;;;;;0.00;0.00;;;;;25.86;46.33;100820.59;4959540;28;45361;-66
2023/07/12 02:49:08;;;;;;;;;0.25;0.00;;;;;25.82;46.78;100829.78;4959112;28;45297;-65
2023/07/12 02:51:33;;;;;;;;;0.75;0.00;;;;;25.78;46.70;100817.50;4959218;28;45460;-66
2023/07/12 02:53:59;;;;;;;;;0.00;0.00;;;;;25.84;46.39;100829.69;4959146;28;45276;-65
2023/07/12 02:56:24;;;;;;;;;2.00;0.00;;;;;25.84;46.72;100837.72;4959251;28;45295;-66
2023/07/12 02:58:50;;;;;;;;;1.00;0.25;;;;;25.81;46.97;100834.25;4957470;28;46050;-66
2023/07/12 03:01:15;;;;;;;;;0.25;0.25;;;;;25.73;46.89;100838.38;4972812;28;45297;-66
2023/07/12 03:03:41;;;;;;;;;1.00;1.00;;;;;25.76;47.03;100841.72;4959166;28;45334;-65
2023/07/12 03:06:09;;;;;;;;;0.00;0.00;;;;;25.69;46.82;100840.38;4959128;28;45582;-65
2023/07/12 03:08:35;;;;;;;;;0.00;0.00;;;;;25.48;46.60;100828.22;4957421;28;46364;-66
2023/07/12 03:11:03;;;;;;;;;0.00;0.00;;;;;25.46;46.62;100841.75;4957135;28;45453;-66
2023/07/12 03:13:28;;;;;;;;;0.00;0.00;;;;;25.37;47.25;100840.47;4960204;28;45417;-65
2023/07/12 03:15:54;;;;;;;;;0.25;0.00;;;;;25.30;47.21;100844.44;4960961;28;45339;-66
2023/07/12 03:18:20;;;;;;;;;0.00;0.00;;;;;25.23;47.27;100847.59;4960451;28;46098;-65
2023/07/12 03:20:45;;;;;;;;;1.00;0.00;;;;;25.20;47.30;100848.63;4960943;28;45711;-65
2023/07/12 03:23:11;;;;;;;;;0.00;0.00;;;;;25.21;47.54;100861.06;4960832;28;45338;-66
2023/07/12 03:25:36;;;;;;;;;0.50;0.00;;;;;25.19;47.63;100854.91;4960737;28;45414;-65
2023/07/12 03:28:02;;;;;;;;;0.00;0.00;;;;;25.19;47.37;100857.59;4961593;28;45467;-66
2023/07/12 03:30:27;;;;;;;;;0.00;0.00;;;;;25.12;47.91;100848.16;4961910;28;45451;-66
2023/07/12 03:32:53;;;;;;;;;0.00;0.00;;;;;25.08;48.06;100847.47;4962166;28;45345;-64
2023/07/12 03:35:19;;;;;;;;;0.00;0.00;;;;;25.15;48.10;100866.72;4962187;28;45322;-66
2023/07/12 03:37:44;;;;;;;;;0.00;0.00;;;;;25.11;48.01;100855.34;4976670;28;45578;-66
2023/07/12 03:40:11;;;;;;;;;0.00;0.00;;;;;25.14;48.03;100856.97;4960976;28;45419;-66
2023/07/12 03:42:36;;;;;;;;;0.25;0.25;;;;;25.14;47.25;100856.97;4960330;28;45741;-66
2023/07/12 03:45:02;;;;;;;;;0.00;0.00;;;;;25.11;48.75;100860.69;4961995;28;45569;-65
2023/07/12 03:47:28;;;;;;;;;0.00;0.00;;;;;25.09;48.24;100865.28;4960981;28;45443;-65
2023/07/12 03:49:54;;;;;;;;;0.00;0.00;;;;;25.12;48.03;100867.78;4959807;28;45452;-65
2023/07/12 03:52:20;;;;;;;;;1.00;1.00;;;;;25.09;47.83;100867.09;4961386;28;45222;-67
2023/07/12 03:54:46;;;;;;;;;1.00;1.00;;;;;25.10;48.05;100869.66;4961031;28;45374;-64
2023/07/12 03:57:11;;;;;;;;;0.75;0.50;;;;;25.13;47.17;100869.53;4959876;28;46085;-65
2023/07/12 03:59:37;;;;;;;;;0.00;0.00;;;;;25.15;47.45;100866.72;4959920;28;45276;-64
2023/07/12 04:02:02;;;;;;;;;1.00;1.00;;;;;25.11;47.74;100871.41;4960475;28;45775;-65
2023/07/12 04:04:28;;;;;;;;;1.00;0.00;;;;;25.17;47.51;100880.91;4961906;28;45258;-65
2023/07/12 04:06:53;;;;;;;;;2.00;1.00;;;;;25.16;46.86;100874.69;4961254;28;45596;-66
2023/07/12 04:09:19;;;;;;;;;2.00;0.00;;;;;25.24;46.92;100879.63;4961178;28;45433;-65
2023/07/12 04:11:44;;;;;;;;;2.00;1.00;;;;;25.24;46.47;100881.47;4959688;28;45574;-65
2023/07/12 04:14:10;;;;;;;;;2.00;2.00;;;;;25.21;46.38;100887.88;4959124;28;45758;-65
2023/07/12 04:16:35;;;;;;;;;2.25;1.00;;;;;25.22;45.74;100892.25;4957855;28;46767;-64
2023/07/12 04:19:01;;;;;;;;;2.00;1.75;;;;;25.17;45.21;100897.00;4959521;28;45577;-65
2023/07/12 04:21:27;;;;;;;;;0.25;0.25;;;;;25.17;44.75;100903.25;4959090;28;45465;-64
2023/07/12 04:23:53;;;;;;;;;2.25;1.25;;;;;25.14;44.77;100898.03;4958848;28;45418;-65
2023/07/12 04:26:20;;;;;;;;;0.25;0.25;;;;;25.15;44.84;100898.88;4960200;28;45382;-66
2023/07/12 04:28:49;;;;;;;;;3.00;1.00;;;;;25.18;44.88;100898.78;4960000;28;45464;-66
2023/07/12 04:31:16;;;;;;;;;2.00;1.00;;;;;25.14;45.28;100902.53;4960142;28;45432;-67
2023/07/12 04:33:41;;;;;;;;;1.00;1.00;;;;;25.08;45.39;100909.13;4959880;28;45411;-66
2023/07/12 04:36:09;;;;;;;;;1.00;1.00;;;;;25.10;44.95;100909.88;4960124;28;45396;-66
2023/07/12 04:38:35;;;;;;;;;0.25;0.25;;;;;25.09;44.44;100902.78;4961136;28;45440;-65
2023/07/12 04:41:02;;;;;;;;;0.75;0.75;;;;;25.08;45.04;100916.25;4959854;28;45487;-65
2023/07/12 04:43:28;;;;;;;;;2.00;1.00;;;;;25.06;44.91;100918.19;4959636;28;45413;-65
2023/07/12 04:45:53;;;;;;;;;1.75;1.75;;;;;25.04;44.70;100925.44;4959116;28;46515;-65
2023/07/12 04:48:20;;;;;;;;;0.25;0.25;;;;;24.93;44.82;100905.44;4959557;28;45429;-65
2023/07/12 04:50:49;;;;;;;;;1.50;1.00;;;;;25.03;44.74;100923.69;4959604;28;45397;-66
2023/07/12 04:53:14;;;;;;;;;2.25;1.00;;;;;25.09;44.44;100926.06;4958105;28;45577;-65
2023/07/12 04:55:43;;;;;;;;;0.50;0.50;;;;;25.10;44.60;100930.44;4959105;28;45947;-64
2023/07/12 04:58:09;;;;;;;;;1.75;1.25;;;;;25.09;44.45;100928.72;4959050;28;45398;-66
2023/07/12 05:00:46;;;;;;;;;3.75;1.00;;;;;24.97;44.07;100925.78;4958546;28;45516;-67
2023/07/12 05:03:15;;;;;;;;;1.50;1.00;;;;;25.06;44.26;100936.94;4959769;28;45761;-65
2023/07/12 05:05:41;;;;;;;;;2.00;1.00;;;;;25.02;44.00;100941.59;4956845;28;47515;-65
2023/07/12 05:08:11;;;;;;;;;4.00;2.00;;;;;24.66;44.25;100913.19;4958189;28;45527;-66
2023/07/12 05:10:37;;;;;;;;;1.00;1.00;;;;;24.77;44.79;100947.41;4958475;28;45444;-66
2023/07/12 05:13:03;;;;;;;;;1.00;1.00;;;;;24.59;44.65;100916.28;4958932;28;45367;-67
2023/07/12 05:15:54;;;;;;;;;2.50;1.75;;;;;24.72;45.01;100961.06;4958401;28;45539;-66
2023/07/12 05:18:21;;;;;;;;;2.00;2.00;;;;;24.58;44.41;100938.66;4958501;28;45408;-67
2023/07/12 05:20:49;;;;;;;;;1.00;1.00;;;;;24.42;44.52;100926.06;4973577;28;45397;-66
2023/07/12 05:23:15;;;;;;;;;1.00;1.00;;;;;24.59;45.24;100977.88;4959448;28;45428;-65
2023/07/12 05:25:48;;;;;;;;;3.25;1.75;;;;;23.94;45.21;100894.66;4955394;28;46642;-66
2023/07/12 05:28:20;;;;;;;;;2.50;2.50;;;;;24.48;44.94;100971.25;4973682;28;45530;-65
2023/07/12 05:30:46;;;;;;;;;3.00;2.00;;;;;24.51;45.02;100995.22;4957509;28;45367;-67
2023/07/12 05:33:12;;;;;;;;;3.00;2.00;;;;;24.50;44.57;100979.22;4959976;28;45526;-65
2023/07/12 05:35:52;;;;;;;;;3.00;2.00;;;;;24.53;44.68;100976.38;4972896;28;46823;-66
2023/07/12 05:38:18;;;;;;;;;4.00;1.00;;;;;24.04;44.40;100882.56;4959298;28;45353;-67
2023/07/12 05:40:43;;;;;;;;;2.25;2.25;;;;;24.71;44.35;100985.25;4958583;28;45427;-66
2023/07/12 05:43:14;;;;;;;;;2.00;2.00;;;;;24.63;44.07;100971.41;4960250;28;45364;-65
2023/07/12 05:45:44;;;;;;;;;2.75;2.50;;;;;24.70;43.93;100994.22;4959765;28;45503;-67
2023/07/12 05:48:12;;;;;;;;;3.25;2.75;;;;;24.65;43.80;100994.47;4958643;28;45594;-65
2023/07/12 05:50:54;;;;;;;;;4.75;1.75;;;;;24.50;44.39;100972.06;4959730;28;45932;-65
2023/07/12 05:53:21;;;;;;;;;2.75;2.00;;;;;24.55;43.84;100969.13;4958748;28;45518;-65
2023/07/12 05:56:02;;;;;;;;;5.25;2.50;;;;;24.82;43.81;101004.31;4957981;28;45471;-66
2023/07/12 05:58:35;;;;;;;;;2.50;2.00;;;;;24.91;43.14;100998.44;4953732;28;45587;-65
2023/07/12 06:01:02;;;;;;;;;1.75;1.75;;;;;24.95;43.18;100988.44;4955801;28;45274;-66
2023/07/12 06:03:30;;;;;;;;;2.00;2.00;;;;;24.83;43.05;100938.22;4954040;28;45438;-65
2023/07/12 06:05:56;;;;;;;;;4.50;1.25;;;;;25.30;42.92;101005.31;4956410;28;46885;-66
2023/07/12 06:08:27;;;;;;;;;1.00;1.00;;;;;25.44;42.51;101000.97;4957868;28;45430;-65
2023/07/12 06:10:54;;;;;;;;;2.00;1.50;;;;;25.46;42.42;100993.72;4957839;28;45520;-66
2023/07/12 06:13:24;;;;;;;;;2.50;1.75;;;;;24.61;42.63;100871.56;4973100;28;45463;-66
2023/07/12 06:15:49;;;;;;;;;1.25;1.25;;;;;25.11;42.48;100972.41;4958568;28;46230;-66
2023/07/12 06:18:17;;;;;;;;;2.00;2.00;;;;;25.17;42.28;101006.88;4958046;28;45332;-66
2023/07/12 06:20:43;;;;;;;;;6.00;3.00;;;;;24.59;42.38;100927.88;4957637;28;45500;-67
2023/07/12 06:23:09;;;;;;;;;2.00;2.00;;;;;25.02;42.66;101013.09;4959081;28;45500;-66
2023/07/12 06:25:38;;;;;;;;;1.00;1.00;;;;;24.89;42.74;101003.03;4959049;28;46580;-66
2023/07/12 06:28:28;;;;;;;;;2.00;2.00;;;;;25.01;43.63;101028.31;4956584;28;45336;-66
2023/07/12 06:30:53;;;;;;;;;4.00;2.00;;;;;25.06;43.43;101014.66;4957091;28;45485;-67
2023/07/12 06:33:19;;;;;;;;;2.00;2.00;;;;;25.14;42.79;101024.00;4954823;28;45620;-67
2023/07/12 06:35:44;;;;;;;;;1.00;1.00;;;;;25.09;43.19;101020.72;4955647;28;45588;-66
2023/07/12 06:38:10;;;;;;;;;2.25;1.75;;;;;25.18;42.90;101019.38;4955909;28;45364;-66
2023/07/12 06:40:37;;;;;;;;;0.00;0.00;;;;;25.26;43.31;101030.53;4957350;28;45436;-66
2023/07/12 06:43:03;;;;;;;;;2.25;1.25;;;;;25.31;43.09;101032.97;4957477;28;45482;-67
2023/07/12 06:45:28;;;;;;;;;2.00;2.00;;;;;25.33;42.33;101037.28;4956750;28;45415;-65
2023/07/12 06:47:54;;;;;;;;;2.00;2.00;;;;;25.35;42.94;101034.53;4956916;28;45331;-67
2023/07/12 06:50:20;;;;;;;;;1.00;1.00;;;;;25.32;42.97;101024.84;4957308;28;45492;-66
2023/07/12 06:52:45;;;;;;;;;2.75;2.75;;;;;25.38;42.52;101034.38;4955007;28;45448;-66
2023/07/12 06:55:11;;;;;;;;;2.50;2.00;;;;;25.33;42.30;101033.75;4957474;28;45464;-67
2023/07/12 06:57:37;;;;;;;;;2.25;1.25;;;;;25.20;41.44;101017.50;4957628;28;45597;-67
2023/07/12 07:00:11;;;;;;;;;3.00;2.00;;;;;25.44;42.42;101027.78;4957513;28;45769;-67
2023/07/12 07:02:37;;;;;;;;;3.00;3.00;;;;;25.48;41.59;101016.81;4972070;28;45508;-67
2023/07/12 07:05:04;;;;;;;;;2.50;2.00;;;;;25.65;42.26;101044.50;4958839;28;45456;-66
2023/07/12 07:07:29;;;;;;;;;2.00;2.00;;;;;25.57;42.04;101042.25;4956661;28;45497;-68
2023/07/12 07:09:56;;;;;;;;;2.00;2.00;;;;;25.34;41.66;101020.28;4957683;28;45464;-65
2023/07/12 07:12:21;;;;;;;;;3.00;2.00;;;;;25.38;41.30;101037.91;4958113;28;45273;-66
2023/07/12 07:14:47;;;;;;;;;1.50;1.00;;;;;25.40;40.65;101051.22;4958745;28;46312;-66
2023/07/12 07:17:16;;;;;;;;;3.00;1.25;;;;;25.37;41.25;101048.72;4957047;28;45520;-68
2023/07/12 07:19:42;;;;;;;;;3.00;2.00;;;;;25.41;41.54;101044.91;4957320;28;45475;-66
2023/07/12 07:22:15;;;;;;;;;2.00;2.00;;;;;25.36;40.53;101031.75;4957120;28;45448;-68
2023/07/12 07:24:41;;;;;;;;;2.00;2.00;;;;;25.34;41.34;101044.41;4949296;28;46232;-67
2023/07/12 07:27:07;;;;;;;;;2.00;2.00;;;;;25.20;42.24;101016.59;4956627;28;45486;-66
2023/07/12 07:29:32;;;;;;;;;1.00;1.00;;;;;25.56;41.37;101029.81;4950783;28;45352;-65
2023/07/12 07:31:58;;;;;;;;;2.00;2.00;;;;;25.87;39.82;101052.25;4938069;28;45542;-66
2023/07/12 07:34:23;;;;;;;;;1.25;1.25;;;;;25.95;40.05;101047.28;4937508;28;46328;-66
2023/07/12 07:36:49;;;;;;;;;3.75;2.50;;;;;26.13;39.78;101053.44;4937316;28;45457;-66
2023/07/12 07:39:15;;;;;;;;;3.00;1.75;;;;;26.10;39.31;101043.75;4937864;28;45814;-66
2023/07/12 07:41:40;;;;;;;;;2.00;2.00;;;;;26.06;39.10;101023.38;4938825;28;45558;-66
2023/07/12 07:44:06;;;;;;;;;3.25;2.00;;;;;26.26;38.56;101056.25;4939428;28;45472;-66
2023/07/12 07:46:32;;;;;;;;;2.00;2.00;;;;;26.15;38.60;101048.81;4938912;28;45698;-65
2023/07/12 07:48:57;;;;;;;;;2.00;2.00;;;;;25.97;38.72;101037.34;4939023;28;45460;-68
2023/07/12 07:51:28;;;;;;;;;3.00;3.00;;;;;26.02;38.73;101048.66;4939167;28;45465;-66
2023/07/12 07:53:55;;;;;;;;;2.00;2.00;;;;;25.94;38.85;101029.47;4939102;28;45590;-67
2023/07/12 07:56:20;;;;;;;;;1.50;1.00;;;;;26.17;38.38;101049.59;4941431;28;45518;-68
2023/07/12 07:58:46;;;;;;;;;2.25;2.25;;;;;26.13;38.68;101058.81;4959073;28;45373;-70
2023/07/12 08:01:12;;;;;;;;;3.25;2.00;;;;;25.83;38.98;101011.25;4958856;28;45558;-69
2023/07/12 08:03:37;;;;;;;;;2.00;2.00;;;;;25.99;38.57;101054.22;4960878;28;45460;-68
2023/07/12 08:06:08;;;;;;;;;1.00;1.00;;;;;25.95;38.28;101040.09;4959936;28;45288;-69
2023/07/12 08:08:34;;;;;;;;;1.00;1.00;;;;;26.14;38.45;101047.09;4960990;28;45472;-67
2023/07/12 08:11:00;;;;;;;;;3.00;2.00;;;;;26.43;38.58;101064.16;4961528;28;45468;-67
2023/07/12 08:13:26;;;;;;;;;2.25;2.25;;;;;26.49;38.30;101055.75;4960034;28;45400;-70
2023/07/12 08:15:55;;;;;;;;;4.00;2.50;;;;;26.60;37.66;101066.75;4960144;28;45464;-66
2023/07/12 08:18:21;;;;;;;;;1.75;0.50;;;;;26.59;37.57;101069.53;4959633;28;45340;-67
2023/07/12 08:20:46;;;;;;;;;2.25;1.75;;;;;26.49;37.39;101065.66;4959926;28;45456;-65
2023/07/12 08:23:12;;;;;;;;;2.00;2.00;;;;;26.50;37.96;101075.41;4974359;28;46875;-66
2023/07/12 08:25:37;;;;;;;;;1.00;1.00;;;;;26.48;37.66;101075.53;4959536;28;45502;-66
2023/07/12 08:28:03;;;;;;;;;2.00;2.00;;;;;26.40;36.95;101062.53;4959696;28;45329;-65
2023/07/12 08:30:29;;;;;;;;;1.00;1.00;;;;;26.40;37.31;101056.31;4960237;28;45401;-66
2023/07/12 08:33:02;;;;;;;;;2.00;1.75;;;;;26.47;37.12;101065.72;4958008;28;47089;-65
2023/07/12 08:35:28;;;;;;;;;3.00;1.00;;;;;26.44;37.20;101069.47;4958828;28;46078;-66
2023/07/12 08:37:55;;;;;;;;;2.00;1.00;;;;;26.44;36.87;101058.72;4953106;28;45464;-67
2023/07/12 08:40:20;;;;;;;;;1.00;1.00;;;;;26.42;37.04;101063.31;4958132;28;45537;-67
2023/07/12 08:42:46;;;;;;;;;1.25;1.00;;;;;26.49;38.79;101065.66;4956654;28;45535;-66
2023/07/12 08:45:32;;;;;;;;;3.00;2.00;;;;;26.71;38.38;101073.31;4958862;28;45428;-65
2023/07/12 08:48:14;;;;;;;;;1.00;1.00;;;;;26.74;36.79;101074.00;4957989;28;46296;-64
2023/07/12 08:50:45;;;;;;;;;1.00;1.00;;;;;26.60;37.54;101074.81;4958351;28;45547;-66
2023/07/12 08:53:33;;;;;;;;;2.00;2.00;;;;;26.60;37.26;101068.56;4958501;28;46158;-65
2023/07/12 08:56:01;;;;;;;;;1.00;1.00;;;;;26.55;37.59;101060.81;4957257;28;45233;-65
2023/07/12 08:58:33;;;;;;;;;1.00;1.00;;;;;26.64;37.43;101062.06;4951390;28;45555;-65
2023/07/12 09:01:06;;;;;;;;;3.50;3.00;;;;;26.63;36.42;101061.19;4956392;28;45270;-66
2023/07/12 09:03:32;;;;;;;;;2.00;2.00;;;;;26.65;36.68;101077.25;4972914;28;47105;-66
2023/07/12 09:05:59;;;;;;;;;1.25;1.25;;;;;26.50;36.55;101073.59;4957665;28;45476;-66
2023/07/12 09:08:33;;;;;;;;;2.00;1.00;;;;;26.51;36.86;101082.53;4957918;28;45724;-65
2023/07/12 09:10:59;;;;;;;;;1.25;1.00;;;;;26.49;37.15;101084.44;4958088;28;45473;-65
2023/07/12 09:13:37;;;;;;;;;2.00;2.00;;;;;26.59;37.01;101083.81;4958500;28;45417;-67
2023/07/12 09:16:05;;;;;;;;;2.00;1.00;;;;;26.77;36.88;101091.75;4958775;28;45443;-66
2023/07/12 09:18:36;;;;;;;;;3.75;3.75;;;;;26.76;36.46;101074.75;4959664;28;45527;-67
2023/07/12 09:21:15;;;;;;;;;2.00;2.00;;;;;26.78;35.81;101093.47;4959599;28;45332;-66
2023/07/12 09:23:47;;;;;;;;;2.00;2.00;;;;;26.43;35.81;101045.38;4958905;28;46659;-65
2023/07/12 09:26:25;;;;;;;;;4.75;2.00;;;;;26.69;35.86;101086.81;4958930;28;45363;-66
2023/07/12 09:28:56;;;;;;;;;1.50;1.50;;;;;26.61;35.87;101078.38;4959231;28;45394;-67
2023/07/12 09:31:27;;;;;;;;;2.00;1.75;;;;;26.71;35.84;101092.97;4960761;28;45375;-66
2023/07/12 09:34:00;;;;;;;;;1.75;1.75;;;;;26.68;35.88;101089.63;4960635;28;45354;-67
2023/07/12 09:36:27;;;;;;;;;2.40;1.00;;;;;26.65;36.12;101086.16;4959586;28;45395;-66
2023/07/12 09:38:58;;;;;;;;;1.50;1.50;;;;;26.69;34.90;101092.19;4958921;28;45341;-67
2023/07/12 09:41:24;;;;;;;;;1.00;1.00;;;;;26.76;34.69;101101.63;4960624;28;45560;-65
2023/07/12 09:43:55;;;;;;;;;2.25;1.00;;;;;26.83;34.58;101083.31;4958777;28;45318;-65
2023/07/12 09:46:42;;;;;;;;;2.25;1.00;;;;;27.02;33.95;101104.56;4958755;28;45463;-65
2023/07/12 09:49:13;;;;;;;;;1.00;1.00;;;;;26.99;34.54;101102.91;4958797;28;45522;-66
2023/07/12 09:51:59;;;;;;;;;1.00;1.00;;;;;26.73;34.44;101091.06;4959079;28;45507;-66
2023/07/12 09:55:04;;;;;;;;;2.00;2.00;;;;;26.78;34.59;101113.13;4958430;28;46352;-66
2023/07/12 09:57:48;;;;;;;;;1.00;1.00;;;;;26.87;33.28;101100.97;4958061;28;45451;-66
2023/07/12 10:00:34;;;;;;;;;2.00;2.00;;;;;27.01;32.91;101102.84;4958980;28;45258;-65
2023/07/12 10:03:14;;;;;;;;;2.00;1.00;;;;;27.10;32.90;101096.91;4958126;28;45566;-66
2023/07/12 10:05:53;;;;;;;;;1.00;1.00;;;;;27.15;32.84;101091.25;4958230;28;45523;-67
2023/07/12 10:08:20;;;;;;;;;1.00;1.00;;;;;27.31;32.06;101100.09;4957106;28;45415;-66
2023/07/12 10:10:57;;;;;;;;;2.00;2.00;;;;;27.35;32.20;101106.16;4958529;28;45405;-68
2023/07/12 10:13:45;;;;;;;;;1.00;1.00;;;;;27.37;32.53;101098.84;4958674;28;45522;-65
2023/07/12 10:16:26;;;;;;;;;4.25;2.25;;;;;27.28;33.02;101094.91;4956833;28;47710;-66
2023/07/12 10:18:54;;;;;;;;;3.25;3.00;;;;;27.22;33.05;101089.94;4959906;28;45627;-68
2023/07/12 10:21:30;;;;;;;;;5.00;3.00;;;;;27.23;33.06;101097.03;4959303;28;45408;-67
2023/07/12 10:23:59;;;;;;;;;3.25;3.25;;;;;27.25;33.34;101101.34;4973608;28;45326;-66
2023/07/12 10:26:25;;;;;;;;;2.50;2.00;;;;;27.15;33.07;101064.34;4959039;28;45598;-67
2023/07/12 10:29:20;;;;;;;;;3.50;2.00;;;;;27.46;32.83;101096.44;4959416;28;45413;-66
2023/07/12 10:31:51;;;;;;;;;3.00;1.00;;;;;27.54;32.48;101095.09;4957901;28;45374;-66
2023/07/12 10:34:43;;;;;;;;;3.00;2.00;;;;;27.30;31.95;101031.13;4958416;28;45448;-66
2023/07/12 10:37:27;;;;;;;;;2.00;2.00;;;;;27.55;32.16;101061.84;4958389;28;45490;-68
2023/07/12 10:39:59;;;;;;;;;2.00;2.00;;;;;27.60;31.61;101082.13;4958159;28;45482;-65
2023/07/12 10:42:29;;;;;;;;;3.00;3.00;;;;;27.65;31.58;101077.31;4959107;28;45301;-66
2023/07/12 10:44:58;;;;;;;;;1.25;1.25;;;;;27.74;31.21;101061.50;4958291;28;45412;-66
2023/07/12 10:47:30;;;;;;;;;1.25;1.25;;;;;27.83;31.09;101053.72;4974049;28;47461;-67
2023/07/12 10:50:01;;;;;;;;;4.50;2.00;;;;;27.95;31.48;101081.69;4958942;28;45535;-66
2023/07/12 10:53:12;;;;;;;;;1.00;1.00;;;;;27.91;31.28;101081.03;4958229;28;45388;-68
2023/07/12 10:55:49;;;;;;;;;1.00;1.00;;;;;27.78;33.39;101068.44;4958521;28;45521;-67
2023/07/12 10:58:25;;;;;;;;;2.00;2.00;;;;;27.79;32.96;101072.88;4957845;28;45514;-65
2023/07/12 11:00:57;;;;;;;;;3.80;3.00;;;;;27.97;32.53;101084.28;4958079;28;45541;-67
2023/07/12 11:03:47;;;;;;;;;2.75;1.50;;;;;28.13;32.70;101068.84;4958007;28;45499;-68
2023/07/12 11:06:25;;;;;;;;;1.50;1.50;;;;;28.19;31.25;101071.13;4958023;28;45385;-68
2023/07/12 11:09:00;;;;;;;;;1.75;0.50;;;;;28.33;31.68;101070.19;4957900;28;46720;-67
2023/07/12 11:11:44;;;;;;;;;1.20;1.20;;;;;28.42;31.24;101072.25;4957952;28;45475;-67
2023/07/12 11:14:42;;;;;;;;;2.00;2.00;;;;;28.42;31.06;101055.25;4959194;28;45428;-67
2023/07/12 11:17:11;;;;;;;;;2.00;2.00;;;;;28.52;30.29;101068.03;4974224;28;45249;-67
2023/07/12 11:19:39;;;;;;;;;1.00;1.00;;;;;28.49;30.02;101067.34;4957836;28;46623;-67
2023/07/12 11:22:43;;;;;;;;;67.00;54.50;;;;;28.49;29.73;101051.19;4957540;28;45655;-69
2023/07/12 11:25:57;;;;;;;;;21.33;19.67;;;;;28.65;29.98;101073.44;4956027;28;45397;-68
2023/07/12 11:28:25;;;;;;;;;5.25;5.25;;;;;28.63;30.19;101034.09;4956979;28;45533;-67
2023/07/12 11:31:15;;;;;;;;;4.00;4.00;;;;;28.88;29.96;101047.59;4957974;28;45603;-66
2023/07/12 11:33:47;;;;;;;;;10.00;9.00;;;;;28.94;30.61;101048.97;4959762;28;45333;-68
2023/07/12 11:36:25;;;;;;;;;18.25;13.50;;;;;28.84;31.01;101053.28;4960860;28;45453;-69